sensor_id;sensor_type;location;lat;lon;timestamp;temperature;humidity
65087;DHT22;52094;51.234;-2.310;2022-08-21T00:04:18;15.50;66.20
65087;DHT22;52094;51.234;-2.310;2022-08-21T00:08:31;15.40;66.90
65087;DHT22;52094;51.234;-2.310;2022-08-21T00:12:37;15.30;68.10
65087;DHT22;52094;51.234;-2.310;2022-08-21T00:16:54;15.20;65.20
65087;DHT22;52094;51.234;-2.310;2022-08-21T00:21:07;15.20;65.40
65087;DHT22;52094;51.234;-2.310;2022-08-21T00:25:16;15.20;68.80
65087;DHT22;52094;51.234;-2.310;2022-08-21T00:29:43;15.10;66.60
65087;DHT22;52094;51.234;-2.310;2022-08-21T00:33:42;15.10;66.50
65087;DHT22;52094;51.234;-2.310;2022-08-21T00:37:43;15.10;68.50
65087;DHT22;52094;51.234;-2.310;2022-08-21T00:42:04;15.10;66.40
65087;DHT22;52094;51.234;-2.310;2022-08-21T00:46:35;15.10;68.30
65087;DHT22;52094;51.234;-2.310;2022-08-21T01:00:33;15.10;67.10
65087;DHT22;52094;51.234;-2.310;2022-08-21T01:09:30;15.20;72.30
65087;DHT22;52094;51.234;-2.310;2022-08-21T01:23:55;15.20;70.00
65087;DHT22;52094;51.234;-2.310;2022-08-21T01:33:09;15.00;69.80
65087;DHT22;52094;51.234;-2.310;2022-08-21T01:37:47;14.90;71.60
65087;DHT22;52094;51.234;-2.310;2022-08-21T01:41:54;14.80;71.20
65087;DHT22;52094;51.234;-2.310;2022-08-21T01:51:12;14.80;70.40
65087;DHT22;52094;51.234;-2.310;2022-08-21T01:56:04;14.70;69.40
65087;DHT22;52094;51.234;-2.310;2022-08-21T02:00:36;14.70;72.00
65087;DHT22;52094;51.234;-2.310;2022-08-21T02:04:41;14.70;68.10
65087;DHT22;52094;51.234;-2.310;2022-08-21T02:08:46;14.60;68.20
65087;DHT22;52094;51.234;-2.310;2022-08-21T02:13:00;14.60;68.60
65087;DHT22;52094;51.234;-2.310;2022-08-21T02:22:10;14.60;69.20
65087;DHT22;52094;51.234;-2.310;2022-08-21T02:26:21;14.60;70.70
65087;DHT22;52094;51.234;-2.310;2022-08-21T02:30:32;14.60;69.00
65087;DHT22;52094;51.234;-2.310;2022-08-21T02:35:02;14.70;72.80
65087;DHT22;52094;51.234;-2.310;2022-08-21T02:54:04;14.70;72.10
65087;DHT22;52094;51.234;-2.310;2022-08-21T02:58:35;14.70;70.00
65087;DHT22;52094;51.234;-2.310;2022-08-21T03:27:26;15.20;71.80
65087;DHT22;52094;51.234;-2.310;2022-08-21T03:49:35;15.00;69.80
65087;DHT22;52094;51.234;-2.310;2022-08-21T03:53:29;14.90;70.00
65087;DHT22;52094;51.234;-2.310;2022-08-21T03:57:38;14.80;70.30
65087;DHT22;52094;51.234;-2.310;2022-08-21T04:01:50;14.80;70.70
65087;DHT22;52094;51.234;-2.310;2022-08-21T04:05:35;14.80;71.00
65087;DHT22;52094;51.234;-2.310;2022-08-21T04:09:35;14.70;71.00
65087;DHT22;52094;51.234;-2.310;2022-08-21T04:18:00;14.80;71.40
65087;DHT22;52094;51.234;-2.310;2022-08-21T04:21:58;14.80;74.60
65087;DHT22;52094;51.234;-2.310;2022-08-21T04:26:02;14.80;71.40
65087;DHT22;52094;51.234;-2.310;2022-08-21T04:29:48;14.80;71.10
65087;DHT22;52094;51.234;-2.310;2022-08-21T04:34:16;14.80;71.50
65087;DHT22;52094;51.234;-2.310;2022-08-21T04:38:34;14.80;73.60
65087;DHT22;52094;51.234;-2.310;2022-08-21T04:42:28;14.80;74.60
65087;DHT22;52094;51.234;-2.310;2022-08-21T04:46:23;14.90;71.90
65087;DHT22;52094;51.234;-2.310;2022-08-21T04:50:08;14.90;71.80
65087;DHT22;52094;51.234;-2.310;2022-08-21T04:57:50;15.00;72.50
65087;DHT22;52094;51.234;-2.310;2022-08-21T05:06:56;15.00;74.20
65087;DHT22;52094;51.234;-2.310;2022-08-21T05:10:54;15.10;74.20
65087;DHT22;52094;51.234;-2.310;2022-08-21T05:14:41;15.10;72.00
65087;DHT22;52094;51.234;-2.310;2022-08-21T05:18:26;15.10;71.90
65087;DHT22;52094;51.234;-2.310;2022-08-21T05:22:24;15.10;72.10
65087;DHT22;52094;51.234;-2.310;2022-08-21T05:26:07;15.10;72.40
65087;DHT22;52094;51.234;-2.310;2022-08-21T05:30:11;15.10;71.70
65087;DHT22;52094;51.234;-2.310;2022-08-21T05:34:04;15.00;72.00
65087;DHT22;52094;51.234;-2.310;2022-08-21T05:37:49;15.00;71.70
65087;DHT22;52094;51.234;-2.310;2022-08-21T05:41:34;15.00;72.30
65087;DHT22;52094;51.234;-2.310;2022-08-21T05:45:27;15.10;72.50
65087;DHT22;52094;51.234;-2.310;2022-08-21T05:49:24;15.20;72.70
65087;DHT22;52094;51.234;-2.310;2022-08-21T05:53:07;15.20;72.80
65087;DHT22;52094;51.234;-2.310;2022-08-21T05:57:07;15.30;72.70
65087;DHT22;52094;51.234;-2.310;2022-08-21T06:01:03;15.40;72.40
65087;DHT22;52094;51.234;-2.310;2022-08-21T06:05:12;15.40;72.40
65087;DHT22;52094;51.234;-2.310;2022-08-21T06:09:00;15.50;72.50
65087;DHT22;52094;51.234;-2.310;2022-08-21T06:13:16;15.60;73.00
65087;DHT22;52094;51.234;-2.310;2022-08-21T06:17:09;15.80;74.80
65087;DHT22;52094;51.234;-2.310;2022-08-21T06:21:23;15.90;73.60
65087;DHT22;52094;51.234;-2.310;2022-08-21T06:25:27;16.00;72.20
65087;DHT22;52094;51.234;-2.310;2022-08-21T06:29:26;16.10;71.80
65087;DHT22;52094;51.234;-2.310;2022-08-21T06:33:33;16.10;71.70
65087;DHT22;52094;51.234;-2.310;2022-08-21T06:37:35;16.10;71.50
65087;DHT22;52094;51.234;-2.310;2022-08-21T06:41:22;16.00;71.70
65087;DHT22;52094;51.234;-2.310;2022-08-21T06:45:08;16.00;72.20
65087;DHT22;52094;51.234;-2.310;2022-08-21T06:49:14;16.10;71.60
65087;DHT22;52094;51.234;-2.310;2022-08-21T06:53:11;16.20;71.90
65087;DHT22;52094;51.234;-2.310;2022-08-21T07:02:29;16.50;72.80
65087;DHT22;52094;51.234;-2.310;2022-08-21T07:06:55;16.70;73.00
65087;DHT22;52094;51.234;-2.310;2022-08-21T07:10:49;16.90;72.00
65087;DHT22;52094;51.234;-2.310;2022-08-21T07:14:37;17.10;72.30
65087;DHT22;52094;51.234;-2.310;2022-08-21T07:18:22;17.30;72.70
65087;DHT22;52094;51.234;-2.310;2022-08-21T07:22:33;17.60;73.00
65087;DHT22;52094;51.234;-2.310;2022-08-21T07:26:22;17.90;71.90
65087;DHT22;52094;51.234;-2.310;2022-08-21T07:30:13;18.30;72.70
65087;DHT22;52094;51.234;-2.310;2022-08-21T07:34:17;18.50;71.00
65087;DHT22;52094;51.234;-2.310;2022-08-21T07:38:21;18.60;69.70
65087;DHT22;52094;51.234;-2.310;2022-08-21T07:42:07;18.60;69.10
65087;DHT22;52094;51.234;-2.310;2022-08-21T07:45:49;18.50;69.00
65087;DHT22;52094;51.234;-2.310;2022-08-21T07:49:35;18.50;69.10
65087;DHT22;52094;51.234;-2.310;2022-08-21T07:53:34;18.50;69.00
65087;DHT22;52094;51.234;-2.310;2022-08-21T07:57:34;18.60;69.10
65087;DHT22;52094;51.234;-2.310;2022-08-21T08:01:30;18.70;68.60
65087;DHT22;52094;51.234;-2.310;2022-08-21T08:05:56;18.80;68.40
65087;DHT22;52094;51.234;-2.310;2022-08-21T08:09:42;18.80;67.60
65087;DHT22;52094;51.234;-2.310;2022-08-21T08:13:42;18.80;67.70
65087;DHT22;52094;51.234;-2.310;2022-08-21T08:18:11;18.80;67.80
65087;DHT22;52094;51.234;-2.310;2022-08-21T08:22:11;18.80;67.50
65087;DHT22;52094;51.234;-2.310;2022-08-21T08:26:35;18.90;67.60
65087;DHT22;52094;51.234;-2.310;2022-08-21T08:30:20;19.00;68.00
65087;DHT22;52094;51.234;-2.310;2022-08-21T08:34:16;19.20;67.60
65087;DHT22;52094;51.234;-2.310;2022-08-21T08:38:10;19.30;67.20
65087;DHT22;52094;51.234;-2.310;2022-08-21T08:42:11;19.50;67.40
65087;DHT22;52094;51.234;-2.310;2022-08-21T08:46:18;19.70;66.70
65087;DHT22;52094;51.234;-2.310;2022-08-21T08:50:08;19.90;67.50
65087;DHT22;52094;51.234;-2.310;2022-08-21T08:54:09;20.20;66.80
65087;DHT22;52094;51.234;-2.310;2022-08-21T08:58:00;20.60;66.70
65087;DHT22;52094;51.234;-2.310;2022-08-21T09:02:26;20.90;67.10
65087;DHT22;52094;51.234;-2.310;2022-08-21T09:15:12;22.10;64.20
65087;DHT22;52094;51.234;-2.310;2022-08-21T09:27:45;24.20;62.00
65087;DHT22;52094;51.234;-2.310;2022-08-21T09:31:44;24.80;64.20
65087;DHT22;52094;51.234;-2.310;2022-08-21T09:36:05;25.40;64.90
65087;DHT22;52094;51.234;-2.310;2022-08-21T09:48:51;30.50;48.00
65087;DHT22;52094;51.234;-2.310;2022-08-21T09:57:47;33.70;41.00
65087;DHT22;52094;51.234;-2.310;2022-08-21T10:01:58;34.20;45.00
65087;DHT22;52094;51.234;-2.310;2022-08-21T10:11:23;34.90;43.30
65087;DHT22;52094;51.234;-2.310;2022-08-21T10:15:47;35.60;42.90
65087;DHT22;52094;51.234;-2.310;2022-08-21T10:47:35;37.90;33.40
65087;DHT22;52094;51.234;-2.310;2022-08-21T10:55:31;37.30;35.60
65087;DHT22;52094;51.234;-2.310;2022-08-21T11:09:50;36.80;33.50
65087;DHT22;52094;51.234;-2.310;2022-08-21T11:23:47;35.30;32.80
65087;DHT22;52094;51.234;-2.310;2022-08-21T11:27:54;33.70;34.90
65087;DHT22;52094;51.234;-2.310;2022-08-21T11:45:42;31.40;36.30
65087;DHT22;52094;51.234;-2.310;2022-08-21T11:55:03;31.60;37.30
65087;DHT22;52094;51.234;-2.310;2022-08-21T12:18:46;32.60;35.00
65087;DHT22;52094;51.234;-2.310;2022-08-21T12:23:30;32.20;36.30
65087;DHT22;52094;51.234;-2.310;2022-08-21T12:42:23;29.70;38.60
65087;DHT22;52094;51.234;-2.310;2022-08-21T12:50:52;28.70;38.70
65087;DHT22;52094;51.234;-2.310;2022-08-21T12:55:11;28.50;39.60
65087;DHT22;52094;51.234;-2.310;2022-08-21T12:59:06;28.60;39.40
65087;DHT22;52094;51.234;-2.310;2022-08-21T13:03:06;28.50;39.70
65087;DHT22;52094;51.234;-2.310;2022-08-21T13:06:54;28.50;40.50
65087;DHT22;52094;51.234;-2.310;2022-08-21T13:11:05;28.50;39.80
65087;DHT22;52094;51.234;-2.310;2022-08-21T13:15:02;28.60;40.40
65087;DHT22;52094;51.234;-2.310;2022-08-21T13:19:15;28.70;39.10
65087;DHT22;52094;51.234;-2.310;2022-08-21T13:23:34;28.60;40.10
65087;DHT22;52094;51.234;-2.310;2022-08-21T13:28:11;28.90;38.70
65087;DHT22;52094;51.234;-2.310;2022-08-21T13:32:25;29.10;39.00
65087;DHT22;52094;51.234;-2.310;2022-08-21T13:41:31;29.30;39.00
65087;DHT22;52094;51.234;-2.310;2022-08-21T13:55:17;29.30;37.60
65087;DHT22;52094;51.234;-2.310;2022-08-21T13:59:35;28.80;39.10
65087;DHT22;52094;51.234;-2.310;2022-08-21T14:09:39;28.30;40.00
65087;DHT22;52094;51.234;-2.310;2022-08-21T14:13:37;28.40;40.10
65087;DHT22;52094;51.234;-2.310;2022-08-21T14:22:45;28.30;39.70
65087;DHT22;52094;51.234;-2.310;2022-08-21T14:27:08;28.00;40.30
65087;DHT22;52094;51.234;-2.310;2022-08-21T14:31:32;27.80;40.60
65087;DHT22;52094;51.234;-2.310;2022-08-21T14:35:34;27.80;41.30
65087;DHT22;52094;51.234;-2.310;2022-08-21T14:39:55;27.80;40.90
65087;DHT22;52094;51.234;-2.310;2022-08-21T14:44:02;27.70;41.60
65087;DHT22;52094;51.234;-2.310;2022-08-21T14:48:22;27.90;41.80
65087;DHT22;52094;51.234;-2.310;2022-08-21T14:56:18;27.80;41.00
65087;DHT22;52094;51.234;-2.310;2022-08-21T15:13:53;26.80;41.90
65087;DHT22;52094;51.234;-2.310;2022-08-21T15:18:32;26.70;42.20
65087;DHT22;52094;51.234;-2.310;2022-08-21T15:27:37;26.20;43.00
65087;DHT22;52094;51.234;-2.310;2022-08-21T15:41:21;25.70;45.10
65087;DHT22;52094;51.234;-2.310;2022-08-21T15:50:13;25.90;45.30
65087;DHT22;52094;51.234;-2.310;2022-08-21T15:54:06;25.80;44.60
65087;DHT22;52094;51.234;-2.310;2022-08-21T15:57:57;25.90;45.20
65087;DHT22;52094;51.234;-2.310;2022-08-21T16:01:52;25.90;44.80
65087;DHT22;52094;51.234;-2.310;2022-08-21T16:05:56;25.80;44.70
65087;DHT22;52094;51.234;-2.310;2022-08-21T16:09:59;25.70;46.20
65087;DHT22;52094;51.234;-2.310;2022-08-21T16:14:31;25.70;47.00
65087;DHT22;52094;51.234;-2.310;2022-08-21T16:19:22;25.60;47.40
65087;DHT22;52094;51.234;-2.310;2022-08-21T16:23:39;25.30;46.40
65087;DHT22;52094;51.234;-2.310;2022-08-21T16:27:38;25.10;47.90
65087;DHT22;52094;51.234;-2.310;2022-08-21T16:31:37;24.80;46.30
65087;DHT22;52094;51.234;-2.310;2022-08-21T16:35:54;24.70;46.90
65087;DHT22;52094;51.234;-2.310;2022-08-21T16:39:39;24.70;46.90
65087;DHT22;52094;51.234;-2.310;2022-08-21T16:43:48;24.60;47.10
65087;DHT22;52094;51.234;-2.310;2022-08-21T16:47:34;24.50;48.20
65087;DHT22;52094;51.234;-2.310;2022-08-21T16:51:56;24.50;47.60
65087;DHT22;52094;51.234;-2.310;2022-08-21T16:56:25;24.30;48.20
65087;DHT22;52094;51.234;-2.310;2022-08-21T17:01:18;24.10;51.80
65087;DHT22;52094;51.234;-2.310;2022-08-21T17:05:35;23.80;50.70
65087;DHT22;52094;51.234;-2.310;2022-08-21T17:09:52;23.70;51.40
65087;DHT22;52094;51.234;-2.310;2022-08-21T17:18:47;23.50;52.40
65087;DHT22;52094;51.234;-2.310;2022-08-21T17:27:00;23.10;49.90
65087;DHT22;52094;51.234;-2.310;2022-08-21T17:31:15;22.90;50.40
65087;DHT22;52094;51.234;-2.310;2022-08-21T17:44:55;22.70;52.10
65087;DHT22;52094;51.234;-2.310;2022-08-21T17:54:32;22.40;54.10
65087;DHT22;52094;51.234;-2.310;2022-08-21T17:59:00;22.20;52.90
65087;DHT22;52094;51.234;-2.310;2022-08-21T18:03:44;22.10;52.50
65087;DHT22;52094;51.234;-2.310;2022-08-21T18:07:51;22.00;53.80
65087;DHT22;52094;51.234;-2.310;2022-08-21T18:29:41;21.60;52.90
65087;DHT22;52094;51.234;-2.310;2022-08-21T18:34:22;21.50;55.00
65087;DHT22;52094;51.234;-2.310;2022-08-21T18:39:10;21.50;54.30
65087;DHT22;52094;51.234;-2.310;2022-08-21T18:53:27;21.30;55.10
65087;DHT22;52094;51.234;-2.310;2022-08-21T18:57:48;21.20;53.60
65087;DHT22;52094;51.234;-2.310;2022-08-21T19:02:16;21.20;56.20
65087;DHT22;52094;51.234;-2.310;2022-08-21T19:06:48;21.10;57.40
65087;DHT22;52094;51.234;-2.310;2022-08-21T19:11:04;20.90;57.30
65087;DHT22;52094;51.234;-2.310;2022-08-21T19:15:16;20.70;53.90
65087;DHT22;52094;51.234;-2.310;2022-08-21T19:19:40;20.50;54.80
65087;DHT22;52094;51.234;-2.310;2022-08-21T19:23:42;20.40;58.10
65087;DHT22;52094;51.234;-2.310;2022-08-21T19:27:58;20.20;55.00
65087;DHT22;52094;51.234;-2.310;2022-08-21T19:31:43;20.10;55.60
65087;DHT22;52094;51.234;-2.310;2022-08-21T19:35:33;19.90;55.10
65087;DHT22;52094;51.234;-2.310;2022-08-21T19:39:45;19.80;57.40
65087;DHT22;52094;51.234;-2.310;2022-08-21T19:48:05;19.60;59.60
65087;DHT22;52094;51.234;-2.310;2022-08-21T19:51:55;19.50;56.30
65087;DHT22;52094;51.234;-2.310;2022-08-21T19:55:46;19.40;57.70
65087;DHT22;52094;51.234;-2.310;2022-08-21T19:59:38;19.30;58.00
65087;DHT22;52094;51.234;-2.310;2022-08-21T20:03:22;19.20;58.30
65087;DHT22;52094;51.234;-2.310;2022-08-21T20:07:13;19.10;57.50
65087;DHT22;52094;51.234;-2.310;2022-08-21T20:11:33;19.00;59.60
65087;DHT22;52094;51.234;-2.310;2022-08-21T20:15:30;18.90;60.90
65087;DHT22;52094;51.234;-2.310;2022-08-21T20:19:28;18.80;58.70
65087;DHT22;52094;51.234;-2.310;2022-08-21T20:23:31;18.70;58.60
65087;DHT22;52094;51.234;-2.310;2022-08-21T20:32:32;18.70;61.90
65087;DHT22;52094;51.234;-2.310;2022-08-21T20:36:40;18.60;63.20
65087;DHT22;52094;51.234;-2.310;2022-08-21T20:40:33;18.50;62.00
65087;DHT22;52094;51.234;-2.310;2022-08-21T20:44:54;18.40;59.70
65087;DHT22;52094;51.234;-2.310;2022-08-21T20:48:43;18.40;62.70
65087;DHT22;52094;51.234;-2.310;2022-08-21T22:00:42;17.00;62.10
